Time;durP1;ratioP1;P1;durP2;ratioP2;P2;SDS_P1;SDS_P2;PMS_P1;PMS_P2;Temp;Humidity;BMP_temperature;BMP_pressure;BME280_temperature;BME280_humidity;BME280_pressure;Samples;Min_cycle;Max_cycle;Signal;HPM_P1;HPM_P2
2021/03/24 00:03:11;;;;;;;34.43;17.57;;;;;;;3.39;80.04;99172.16;468893;1196;103613;-40
2021/03/24 00:13:17;;;;;;;33.50;16.87;;;;;;;3.41;79.73;99174.61;469094;1196;103526;-42
2021/03/24 00:23:23;;;;;;;37.93;18.67;;;;;;;3.44;80.08;99171.65;469229;1196;103261;-42
2021/03/24 00:33:27;;;;;;;29.45;16.70;;;;;;;3.44;80.11;99155.96;469082;1196;103187;-40
2021/03/24 00:43:33;;;;;;;44.17;19.17;;;;;;;3.47;79.88;99160.03;469178;1196;103226;-41
2021/03/24 00:53:37;;;;;;;35.90;17.00;;;;;;;3.47;79.50;99160.84;469210;1196;103558;-41
2021/03/24 01:03:41;;;;;;;32.90;16.43;;;;;;;3.46;79.84;99159.22;469349;1196;103578;-40
2021/03/24 01:14:10;;;;;;;31.93;16.03;;;;;;;3.47;79.97;99157.42;469261;1196;103232;-41
2021/03/24 01:24:14;;;;;;;29.33;14.25;;;;;;;3.47;79.76;99153.00;469130;1196;104485;-40
2021/03/24 01:34:18;;;;;;;31.33;14.43;;;;;;;3.48;79.62;99151.20;468759;1196;103517;-41
2021/03/24 01:44:23;;;;;;;30.23;14.40;;;;;;;3.49;79.55;99153.64;469048;1196;103245;-42
2021/03/24 01:54:26;;;;;;;34.50;18.90;;;;;;;3.46;79.62;99156.61;469088;1196;103326;-40
2021/03/24 02:04:30;;;;;;;34.77;15.90;;;;;;;3.44;79.42;99170.84;469089;1196;103581;-41
2021/03/24 02:14:40;;;;;;;29.80;14.40;;;;;;;3.45;79.68;99172.47;470388;1164;103300;-40
2021/03/24 02:24:48;;;;;;;29.43;14.30;;;;;;;3.48;79.67;99177.34;469113;1196;104687;-41
2021/03/24 02:34:57;;;;;;;24.40;13.80;;;;;;;3.46;79.34;99187.98;469143;1196;103561;-41
2021/03/24 02:45:02;;;;;;;35.47;15.30;;;;;;;3.44;79.62;99183.91;469230;1196;103519;-41
2021/03/24 02:55:10;;;;;;;25.93;13.93;;;;;;;3.46;79.45;99195.01;469263;1196;104691;-41
2021/03/24 03:05:19;;;;;;;39.25;18.25;;;;;;;3.39;79.24;99195.70;468995;1196;103346;-40
2021/03/24 03:15:22;;;;;;;36.70;16.50;;;;;;;3.38;79.14;99186.22;468801;1196;103204;-41
2021/03/24 03:25:30;;;;;;;31.80;15.03;;;;;;;3.39;79.22;99195.70;468428;1197;103220;-41
2021/03/24 03:35:38;;;;;;;30.60;14.60;;;;;;;3.39;79.19;99185.23;468978;1196;103626;-40
2021/03/24 03:45:45;;;;;;;32.00;16.80;;;;;;;3.34;79.14;99184.94;468925;1196;103147;-40
2021/03/24 03:55:51;;;;;;;50.07;24.20;;;;;;;3.25;78.72;99164.21;468850;1196;103210;-43
2021/03/24 04:05:57;;;;;;;47.20;22.90;;;;;;;3.21;79.41;99166.35;469311;1196;103219;-41
2021/03/24 04:16:26;;;;;;;31.35;16.90;;;;;;;3.20;79.07;99174.36;468992;1196;103191;-41
2021/03/24 04:26:30;;;;;;;35.63;17.98;;;;;;;3.22;79.36;99180.23;469136;1196;103207;-42
2021/03/24 04:36:39;;;;;;;35.80;17.50;;;;;;;3.23;79.01;99182.67;468615;1196;103522;-40
2021/03/24 04:46:48;;;;;;;37.47;17.90;;;;;;;3.23;79.35;99187.09;468882;1196;103226;-40
2021/03/24 04:56:56;;;;;;;50.90;25.00;;;;;;;3.17;79.23;99190.38;468933;1196;103169;-40
2021/03/24 05:07:01;;;;;;;35.33;19.43;;;;;;;3.18;79.29;99213.73;468961;1196;103219;-41
2021/03/24 05:17:07;;;;;;;41.45;18.90;;;;;;;3.22;79.01;99214.20;469133;1196;103536;-39
2021/03/24 05:27:13;;;;;;;33.23;18.50;;;;;;;3.30;78.88;99224.63;469242;1196;103216;-40
2021/03/24 05:37:19;;;;;;;30.47;18.50;;;;;;;3.43;78.85;99224.11;468985;1196;103254;-41
2021/03/24 05:48:03;;;;;;;35.70;19.83;;;;;;;3.50;78.65;99231.09;469092;1196;103251;-41
2021/03/24 05:58:27;;;;;;;64.30;29.60;;;;;;;3.57;79.00;99239.91;469494;1196;103228;-41
2021/03/24 06:08:52;;;;;;;47.90;24.40;;;;;;;3.69;79.08;99238.54;469061;1196;103532;-42
2021/03/24 06:18:59;;;;;;;44.85;22.70;;;;;;;3.92;78.74;99229.92;469106;1196;103574;-41
2021/03/24 06:29:04;;;;;;;42.13;21.90;;;;;;;4.16;78.70;99231.58;469043;1196;104799;-40
2021/03/24 06:39:29;;;;;;;35.47;19.57;;;;;;;4.36;78.65;99242.41;468680;1196;103644;-42
2021/03/24 06:49:38;;;;;;;49.37;24.23;;;;;;;4.51;78.32;99248.53;469125;1196;103593;-40
2021/03/24 07:00:18;;;;;;;42.90;21.87;;;;;;;4.56;77.88;99256.67;469035;1196;103527;-42
2021/03/24 07:10:33;;;;;;;36.90;21.57;;;;;;;4.71;77.61;99269.79;469116;1196;103539;-41
2021/03/24 07:21:02;;;;;;;33.80;21.37;;;;;;;4.87;77.29;99264.42;468874;1196;103586;-42
2021/03/24 07:31:24;;;;;;;44.87;23.60;;;;;;;5.06;76.98;99271.78;468883;1196;103501;-40
2021/03/24 07:41:55;;;;;;;30.10;15.10;;;;;;;5.30;76.55;99288.27;469087;1196;103231;-43
2021/03/24 07:52:10;;;;;;;30.33;14.17;;;;;;;5.57;76.20;99281.59;468840;1196;103228;-40
2021/03/24 08:24:15;;;;;;;23.55;13.60;;;;;;;5.96;72.45;99290.01;468209;1200;104650;-40
2021/03/24 08:34:21;;;;;;;38.70;16.35;;;;;;;6.34;72.94;99295.88;467859;1200;103564;-42
2021/03/24 08:44:25;;;;;;;21.97;13.13;;;;;;;6.56;71.49;99288.83;467622;1199;104698;-40
2021/03/24 08:54:52;;;;;;;17.70;10.20;;;;;;;6.61;69.56;99283.00;469048;1196;103294;-43
2021/03/24 09:05:09;;;;;;;17.43;10.03;;;;;;;6.64;68.14;99272.14;469403;1197;103213;-40
2021/03/24 09:15:21;;;;;;;36.63;12.23;;;;;;;6.87;68.59;99274.56;468952;1196;104693;-40
2021/03/24 09:25:37;;;;;;;35.07;11.47;;;;;;;6.95;67.52;99277.86;469215;1196;103242;-41
2021/03/24 09:35:45;;;;;;;21.67;11.60;;;;;;;7.15;66.80;99270.13;468817;1196;103226;-41
2021/03/24 09:45:57;;;;;;;26.40;13.30;;;;;;;7.42;67.01;99263.20;469159;1196;104383;-41
2021/03/24 09:56:01;;;;;;;20.60;10.30;;;;;;;7.14;65.57;99251.91;469115;1196;103295;-41
2021/03/24 10:06:04;;;;;;;17.30;12.00;;;;;;;7.27;65.46;99251.97;468886;1196;103225;-40
2021/03/24 10:16:11;;;;;;;27.90;13.83;;;;;;;7.16;65.56;99258.59;469382;1196;103551;-40
2021/03/24 10:26:17;;;;;;;29.93;14.83;;;;;;;7.21;65.54;99256.20;469000;1196;103634;-41
2021/03/24 10:36:21;;;;;;;19.73;11.23;;;;;;;7.15;64.46;99256.97;469130;1196;103216;-41
2021/03/24 10:46:25;;;;;;;17.50;10.73;;;;;;;6.88;64.42;99242.02;468731;1196;104620;-40
2021/03/24 10:56:33;;;;;;;18.40;9.97;;;;;;;7.00;64.93;99243.91;468871;1196;103222;-43
2021/03/24 11:06:36;;;;;;;24.67;10.20;;;;;;;7.09;63.91;99242.75;468657;1196;103564;-42
2021/03/24 11:16:43;;;;;;;17.03;9.67;;;;;;;7.11;63.06;99241.77;468560;1196;103606;-41
2021/03/24 11:27:11;;;;;;;21.70;10.90;;;;;;;7.25;63.77;99233.75;468750;1196;103286;-39
2021/03/24 11:37:23;;;;;;;17.93;11.33;;;;;;;7.21;62.93;99229.08;469324;1196;103670;-41
2021/03/24 11:47:41;;;;;;;25.47;13.07;;;;;;;7.31;62.88;99213.75;469187;1196;103668;-42
2021/03/24 11:57:48;;;;;;;17.30;11.55;;;;;;;7.37;62.68;99202.47;469176;1196;103529;-42
2021/03/24 12:07:59;;;;;;;21.33;12.63;;;;;;;7.51;62.37;99203.33;469184;1196;103619;-41
2021/03/24 12:18:10;;;;;;;23.10;13.25;;;;;;;7.35;62.56;99194.78;469008;1196;103268;-41
2021/03/24 12:28:23;;;;;;;21.80;12.93;;;;;;;7.24;62.42;99212.91;468985;1196;103235;-41
2021/03/24 12:38:39;;;;;;;21.77;12.48;;;;;;;7.26;63.07;99203.00;469105;1196;103786;-43
2021/03/24 12:48:47;;;;;;;22.50;12.98;;;;;;;7.17;62.76;99207.62;468983;1196;103200;-42
2021/03/24 12:58:53;;;;;;;22.55;12.75;;;;;;;7.15;63.50;99193.04;469228;1196;103210;-43
2021/03/24 13:09:09;;;;;;;24.80;14.80;;;;;;;7.14;63.67;99194.86;469234;1196;103228;-43
2021/03/24 13:19:19;;;;;;;26.13;16.37;;;;;;;7.12;63.87;99190.80;469211;1196;104495;-43
2021/03/24 13:29:33;;;;;;;26.80;15.50;;;;;;;6.98;64.15;99182.01;469318;1196;103235;-42
2021/03/24 13:39:43;;;;;;;32.87;18.57;;;;;;;6.80;64.47;99179.05;469312;1196;103577;-40
2021/03/24 13:49:50;;;;;;;36.55;18.13;;;;;;;6.80;64.69;99184.30;469007;1196;103207;-40
2021/03/24 13:59:55;;;;;;;37.27;18.00;;;;;;;6.64;65.31;99174.91;468907;1196;103229;-42
2021/03/24 14:10:02;;;;;;;70.25;30.25;;;;;;;6.46;65.56;99183.25;469262;1196;103277;-43
2021/03/24 14:20:18;;;;;;;72.17;35.17;;;;;;;6.34;66.19;99182.13;468965;1196;103532;-40
2021/03/24 14:30:27;;;;;;;46.87;22.80;;;;;;;6.32;66.46;99170.99;469069;1196;104623;-41
2021/03/24 14:40:39;;;;;;;42.38;19.45;;;;;;;6.38;66.58;99170.23;468895;1196;103223;-41
2021/03/24 14:50:46;;;;;;;25.97;15.27;;;;;;;6.40;66.74;99169.06;469360;1196;103184;-40
2021/03/24 15:00:52;;;;;;;36.95;18.95;;;;;;;6.33;67.13;99165.55;468673;1196;103239;-44
2021/03/24 15:11:08;;;;;;;36.30;17.50;;;;;;;6.38;66.73;99162.34;469194;1196;103599;-41
2021/03/24 15:21:13;;;;;;;30.85;16.45;;;;;;;6.25;67.02;99154.38;468923;1196;103332;-41
2021/03/24 15:31:35;;;;;;;50.80;23.57;;;;;;;6.19;66.94;99160.39;469188;1196;103204;-41
2021/03/24 15:41:40;;;;;;;53.60;25.40;;;;;;;6.07;67.39;99163.50;468971;1196;103593;-42
2021/03/24 15:51:45;;;;;;;41.80;21.45;;;;;;;6.00;67.48;99159.20;468970;1196;103584;-45
2021/03/24 16:01:51;;;;;;;54.90;24.40;;;;;;;5.90;67.77;99159.48;469137;1196;103494;-41
2021/03/24 16:12:31;;;;;;;46.60;23.17;;;;;;;5.73;68.10;99158.08;469041;1196;103563;-41
2021/03/24 16:22:49;;;;;;;;;;;;;;;5.59;68.11;99158.92;468876;1203;103226;-40
2021/03/24 16:33:23;;;;;;;38.55;23.20;;;;;;;5.52;68.36;99171.97;469150;1196;103628;-43
2021/03/24 16:43:55;;;;;;;39.30;23.73;;;;;;;5.46;68.48;99167.46;469083;1196;103517;-39
2021/03/24 16:54:16;;;;;;;52.43;23.57;;;;;;;5.54;68.71;99159.48;468936;1196;103225;-42
2021/03/24 17:04:32;;;;;;;61.43;25.80;;;;;;;5.23;68.84;99163.15;469459;1196;103657;-40
2021/03/24 17:14:44;;;;;;;47.63;27.27;;;;;;;4.90;69.36;99169.73;468789;1196;103651;-40
2021/03/24 17:24:51;;;;;;;50.33;24.43;;;;;;;4.76;69.38;99168.73;469124;1196;103235;-41
2021/03/24 17:35:02;;;;;;;37.90;18.40;;;;;;;4.72;69.56;99171.88;469070;1196;103299;-43
2021/03/24 17:45:15;;;;;;;38.30;21.80;;;;;;;4.76;69.76;99171.36;469023;1196;103223;-41
2021/03/24 17:55:35;;;;;;;53.15;27.95;;;;;;;4.79;70.11;99173.62;468951;1196;103220;-40
2021/03/24 18:05:43;;;;;;;57.13;27.63;;;;;;;4.78;70.07;99187.71;469061;1196;103254;-41
2021/03/24 18:15:48;;;;;;;62.23;30.63;;;;;;;4.72;70.25;99185.78;469055;1196;103146;-41
2021/03/24 18:25:57;;;;;;;59.33;28.60;;;;;;;4.65;70.45;99173.59;468745;1196;103523;-40
2021/03/24 18:36:11;;;;;;;73.00;34.43;;;;;;;4.57;70.39;99171.86;468974;1196;104620;-41
2021/03/24 18:46:16;;;;;;;70.55;36.00;;;;;;;4.58;70.54;99173.49;469167;1196;103204;-42
2021/03/24 18:56:22;;;;;;;75.10;37.60;;;;;;;4.65;70.43;99166.55;469275;1196;103213;-43
2021/03/24 19:06:26;;;;;;;81.03;38.27;;;;;;;4.73;70.70;99170.88;469271;1196;103551;-40
2021/03/24 19:16:43;;;;;;;105.25;49.90;;;;;;;4.68;70.83;99166.18;469266;1196;103216;-44
2021/03/24 19:27:06;;;;;;;119.53;59.57;;;;;;;4.66;70.84;99173.41;469078;1196;103608;-40
2021/03/24 19:37:16;;;;;;;92.97;48.30;;;;;;;4.59;71.04;99172.50;468859;1196;103220;-42
2021/03/24 19:47:36;;;;;;;123.20;51.93;;;;;;;4.55;71.29;99177.28;468881;1196;103283;-42
2021/03/24 20:18:22;;;;;;;84.17;39.43;;;;;;;4.57;71.15;99179.72;469068;1196;103207;-42
2021/03/24 20:28:27;;;;;;;104.10;46.05;;;;;;;4.61;71.39;99184.42;469157;1196;104732;-41
2021/03/24 20:38:36;;;;;;;96.67;40.70;;;;;;;4.63;71.48;99179.00;469219;1196;103232;-40
2021/03/24 20:48:42;;;;;;;109.63;50.77;;;;;;;4.56;71.69;99173.67;469102;1196;103335;-40
2021/03/24 20:58:49;;;;;;;78.50;36.63;;;;;;;4.52;71.63;99176.83;468763;1196;103335;-41
2021/03/24 21:08:53;;;;;;;75.13;34.07;;;;;;;4.39;71.84;99173.98;468716;1196;103207;-41
2021/03/24 21:18:57;;;;;;;88.30;44.87;;;;;;;4.37;71.62;99166.30;468903;1196;103210;-42
2021/03/24 21:29:03;;;;;;;60.40;28.33;;;;;;;4.51;71.97;99165.54;468768;1196;103222;-42
2021/03/24 21:39:08;;;;;;;92.00;41.07;;;;;;;4.66;72.14;99170.78;468727;1196;103254;-41
2021/03/24 21:49:13;;;;;;;95.67;43.23;;;;;;;4.55;71.96;99173.85;468738;1196;103563;-41
2021/03/24 21:59:22;;;;;;;180.83;75.13;;;;;;;4.43;72.08;99172.63;468610;1196;103201;-41
2021/03/24 22:09:26;;;;;;;158.40;70.73;;;;;;;4.33;71.92;99172.89;468656;1196;103516;-40
2021/03/24 22:19:30;;;;;;;110.50;51.87;;;;;;;4.24;71.87;99166.88;468628;1196;104277;-42
2021/03/24 22:29:36;;;;;;;124.10;56.10;;;;;;;4.36;71.99;99169.10;469262;1196;103216;-41
2021/03/24 22:39:46;;;;;;;144.20;67.60;;;;;;;4.38;72.08;99164.50;469168;1196;103305;-41
2021/03/24 23:10:44;;;;;;;146.70;65.80;;;;;;;3.92;72.26;99146.20;468874;1196;103695;-43
2021/03/24 23:20:54;;;;;;;130.70;64.45;;;;;;;3.86;72.43;99144.29;469230;1196;103146;-40
2021/03/24 23:31:02;;;;;;;136.47;66.73;;;;;;;3.81;72.52;99142.20;469001;1196;103200;-40
2021/03/24 23:41:07;;;;;;;194.95;82.00;;;;;;;3.76;72.61;99125.38;469138;1196;103217;-40
2021/03/24 23:51:13;;;;;;;232.37;97.67;;;;;;;3.82;73.03;99116.86;469316;1196;104675;-40
